sensor_id;sensor_type;location;lat;lon;timestamp;temperature;humidity
24638;DHT22;12773;50.162;8.548;2023-01-16T00:02:21;6.50;99.90
24638;DHT22;12773;50.162;8.548;2023-01-16T00:05:09;6.50;99.90
24638;DHT22;12773;50.162;8.548;2023-01-16T00:07:56;6.50;99.90
24638;DHT22;12773;50.162;8.548;2023-01-16T00:10:44;6.50;99.90
24638;DHT22;12773;50.162;8.548;2023-01-16T00:13:32;6.50;99.90
24638;DHT22;12773;50.162;8.548;2023-01-16T00:16:19;6.50;99.90
24638;DHT22;12773;50.162;8.548;2023-01-16T00:19:07;6.60;99.90
24638;DHT22;12773;50.162;8.548;2023-01-16T00:21:54;6.60;99.90
24638;DHT22;12773;50.162;8.548;2023-01-16T00:24:42;6.60;99.90
24638;DHT22;12773;50.162;8.548;2023-01-16T00:27:29;6.80;99.90
24638;DHT22;12773;50.162;8.548;2023-01-16T00:30:16;6.80;99.90
24638;DHT22;12773;50.162;8.548;2023-01-16T00:33:06;6.80;99.90
24638;DHT22;12773;50.162;8.548;2023-01-16T00:35:54;6.70;99.90
24638;DHT22;12773;50.162;8.548;2023-01-16T00:38:41;6.70;99.90
24638;DHT22;12773;50.162;8.548;2023-01-16T00:41:29;6.70;99.90
24638;DHT22;12773;50.162;8.548;2023-01-16T00:44:16;6.70;99.90
24638;DHT22;12773;50.162;8.548;2023-01-16T00:47:05;6.70;99.90
24638;DHT22;12773;50.162;8.548;2023-01-16T00:49:53;6.60;99.90
24638;DHT22;12773;50.162;8.548;2023-01-16T00:52:40;6.60;99.90
24638;DHT22;12773;50.162;8.548;2023-01-16T00:55:28;6.60;99.90
24638;DHT22;12773;50.162;8.548;2023-01-16T00:58:16;6.70;99.90
24638;DHT22;12773;50.162;8.548;2023-01-16T01:01:03;6.70;99.90
24638;DHT22;12773;50.162;8.548;2023-01-16T01:03:51;6.80;99.90
24638;DHT22;12773;50.162;8.548;2023-01-16T01:06:39;6.70;99.90
24638;DHT22;12773;50.162;8.548;2023-01-16T01:09:27;6.60;99.90
24638;DHT22;12773;50.162;8.548;2023-01-16T01:12:14;6.60;99.90
24638;DHT22;12773;50.162;8.548;2023-01-16T01:15:02;6.50;99.90
24638;DHT22;12773;50.162;8.548;2023-01-16T01:17:49;6.50;99.90
24638;DHT22;12773;50.162;8.548;2023-01-16T01:20:36;6.50;99.90
24638;DHT22;12773;50.162;8.548;2023-01-16T01:23:23;6.50;99.90
24638;DHT22;12773;50.162;8.548;2023-01-16T01:26:14;6.40;99.90
24638;DHT22;12773;50.162;8.548;2023-01-16T01:29:03;6.40;99.90
24638;DHT22;12773;50.162;8.548;2023-01-16T01:31:51;6.30;99.90
24638;DHT22;12773;50.162;8.548;2023-01-16T01:34:39;6.30;99.90
24638;DHT22;12773;50.162;8.548;2023-01-16T01:37:27;6.40;99.90
24638;DHT22;12773;50.162;8.548;2023-01-16T01:40:14;6.30;99.90
24638;DHT22;12773;50.162;8.548;2023-01-16T01:43:02;6.30;99.90
24638;DHT22;12773;50.162;8.548;2023-01-16T01:45:53;6.30;99.90
24638;DHT22;12773;50.162;8.548;2023-01-16T01:48:42;6.20;99.90
24638;DHT22;12773;50.162;8.548;2023-01-16T01:51:32;6.20;99.90
24638;DHT22;12773;50.162;8.548;2023-01-16T01:54:25;6.30;99.90
24638;DHT22;12773;50.162;8.548;2023-01-16T01:57:26;6.30;99.90
24638;DHT22;12773;50.162;8.548;2023-01-16T02:00:18;6.40;99.90
24638;DHT22;12773;50.162;8.548;2023-01-16T02:03:11;6.40;99.90
24638;DHT22;12773;50.162;8.548;2023-01-16T02:06:01;6.30;99.90
24638;DHT22;12773;50.162;8.548;2023-01-16T02:08:51;6.40;99.90
24638;DHT22;12773;50.162;8.548;2023-01-16T02:11:43;6.40;99.90
24638;DHT22;12773;50.162;8.548;2023-01-16T02:14:38;6.50;99.90
24638;DHT22;12773;50.162;8.548;2023-01-16T02:17:25;6.40;99.90
24638;DHT22;12773;50.162;8.548;2023-01-16T02:20:36;6.50;99.90
24638;DHT22;12773;50.162;8.548;2023-01-16T02:36:20;6.40;99.90
24638;DHT22;12773;50.162;8.548;2023-01-16T02:41:49;6.30;99.90
24638;DHT22;12773;50.162;8.548;2023-01-16T02:44:48;6.40;99.90
24638;DHT22;12773;50.162;8.548;2023-01-16T02:47:58;6.40;99.90
24638;DHT22;12773;50.162;8.548;2023-01-16T02:51:57;6.40;99.90
24638;DHT22;12773;50.162;8.548;2023-01-16T02:54:18;6.40;99.90
24638;DHT22;12773;50.162;8.548;2023-01-16T02:57:07;6.20;99.90
24638;DHT22;12773;50.162;8.548;2023-01-16T02:59:54;6.20;99.90
24638;DHT22;12773;50.162;8.548;2023-01-16T03:02:41;6.20;99.90
24638;DHT22;12773;50.162;8.548;2023-01-16T03:05:31;6.20;99.90
24638;DHT22;12773;50.162;8.548;2023-01-16T03:08:40;6.30;99.90
24638;DHT22;12773;50.162;8.548;2023-01-16T03:11:28;6.30;99.90
24638;DHT22;12773;50.162;8.548;2023-01-16T03:17:45;6.30;99.90
24638;DHT22;12773;50.162;8.548;2023-01-16T03:23:51;6.40;99.90
24638;DHT22;12773;50.162;8.548;2023-01-16T03:26:51;6.40;99.90
24638;DHT22;12773;50.162;8.548;2023-01-16T03:29:47;6.40;99.90
24638;DHT22;12773;50.162;8.548;2023-01-16T03:35:41;6.50;99.90
24638;DHT22;12773;50.162;8.548;2023-01-16T03:38:25;6.30;99.90
24638;DHT22;12773;50.162;8.548;2023-01-16T03:41:15;6.30;99.90
24638;DHT22;12773;50.162;8.548;2023-01-16T03:44:09;6.30;99.90
24638;DHT22;12773;50.162;8.548;2023-01-16T03:46:58;6.30;99.90
24638;DHT22;12773;50.162;8.548;2023-01-16T03:49:49;6.40;99.90
24638;DHT22;12773;50.162;8.548;2023-01-16T03:52:40;6.30;99.90
24638;DHT22;12773;50.162;8.548;2023-01-16T03:55:31;6.30;99.90
24638;DHT22;12773;50.162;8.548;2023-01-16T03:58:33;6.40;99.90
24638;DHT22;12773;50.162;8.548;2023-01-16T04:04:27;6.60;99.90
24638;DHT22;12773;50.162;8.548;2023-01-16T04:07:13;6.70;99.90
24638;DHT22;12773;50.162;8.548;2023-01-16T04:10:03;6.70;99.90
24638;DHT22;12773;50.162;8.548;2023-01-16T04:12:57;6.60;99.90
24638;DHT22;12773;50.162;8.548;2023-01-16T04:15:46;6.50;99.90
24638;DHT22;12773;50.162;8.548;2023-01-16T04:18:36;6.50;99.90
24638;DHT22;12773;50.162;8.548;2023-01-16T04:21:30;6.40;99.90
24638;DHT22;12773;50.162;8.548;2023-01-16T04:24:18;6.50;99.90
24638;DHT22;12773;50.162;8.548;2023-01-16T04:27:06;6.40;99.90
24638;DHT22;12773;50.162;8.548;2023-01-16T04:29:53;6.50;99.90
24638;DHT22;12773;50.162;8.548;2023-01-16T04:32:42;6.40;99.90
24638;DHT22;12773;50.162;8.548;2023-01-16T04:35:30;6.30;99.90
24638;DHT22;12773;50.162;8.548;2023-01-16T04:38:17;6.40;99.90
24638;DHT22;12773;50.162;8.548;2023-01-16T04:41:05;6.40;99.90
24638;DHT22;12773;50.162;8.548;2023-01-16T04:43:55;6.20;99.90
24638;DHT22;12773;50.162;8.548;2023-01-16T04:46:42;6.30;99.90
24638;DHT22;12773;50.162;8.548;2023-01-16T04:49:30;6.40;99.90
24638;DHT22;12773;50.162;8.548;2023-01-16T04:52:18;6.40;99.90
24638;DHT22;12773;50.162;8.548;2023-01-16T04:55:06;6.30;99.90
24638;DHT22;12773;50.162;8.548;2023-01-16T04:57:54;6.30;99.90
24638;DHT22;12773;50.162;8.548;2023-01-16T05:00:41;6.30;99.90
24638;DHT22;12773;50.162;8.548;2023-01-16T05:03:29;6.40;99.90
24638;DHT22;12773;50.162;8.548;2023-01-16T05:06:17;6.40;99.90
24638;DHT22;12773;50.162;8.548;2023-01-16T05:09:06;6.20;99.90
24638;DHT22;12773;50.162;8.548;2023-01-16T05:11:53;6.30;99.90
24638;DHT22;12773;50.162;8.548;2023-01-16T05:14:40;6.20;99.90
24638;DHT22;12773;50.162;8.548;2023-01-16T05:17:28;6.20;99.90
24638;DHT22;12773;50.162;8.548;2023-01-16T05:20:16;6.20;99.90
24638;DHT22;12773;50.162;8.548;2023-01-16T05:23:04;6.10;99.90
24638;DHT22;12773;50.162;8.548;2023-01-16T05:25:51;6.20;99.90
24638;DHT22;12773;50.162;8.548;2023-01-16T05:28:40;6.20;99.90
24638;DHT22;12773;50.162;8.548;2023-01-16T05:31:27;6.30;99.90
24638;DHT22;12773;50.162;8.548;2023-01-16T05:34:15;6.20;99.90
24638;DHT22;12773;50.162;8.548;2023-01-16T05:37:02;6.20;99.90
24638;DHT22;12773;50.162;8.548;2023-01-16T05:39:50;6.30;99.90
24638;DHT22;12773;50.162;8.548;2023-01-16T05:42:37;6.20;99.90
24638;DHT22;12773;50.162;8.548;2023-01-16T05:45:25;6.20;99.90
24638;DHT22;12773;50.162;8.548;2023-01-16T05:48:14;6.20;99.90
24638;DHT22;12773;50.162;8.548;2023-01-16T05:51:02;6.10;99.90
24638;DHT22;12773;50.162;8.548;2023-01-16T05:53:50;6.10;99.90
24638;DHT22;12773;50.162;8.548;2023-01-16T05:56:38;6.10;99.90
24638;DHT22;12773;50.162;8.548;2023-01-16T05:59:25;6.20;99.90
24638;DHT22;12773;50.162;8.548;2023-01-16T06:02:12;6.10;99.90
24638;DHT22;12773;50.162;8.548;2023-01-16T06:05:00;6.10;99.90
24638;DHT22;12773;50.162;8.548;2023-01-16T06:07:47;6.10;99.90
24638;DHT22;12773;50.162;8.548;2023-01-16T06:10:35;6.10;99.90
24638;DHT22;12773;50.162;8.548;2023-01-16T06:13:22;6.10;99.90
24638;DHT22;12773;50.162;8.548;2023-01-16T06:16:10;6.10;99.90
24638;DHT22;12773;50.162;8.548;2023-01-16T06:18:57;6.10;99.90
24638;DHT22;12773;50.162;8.548;2023-01-16T06:21:45;6.10;99.90
24638;DHT22;12773;50.162;8.548;2023-01-16T06:24:33;6.10;99.90
24638;DHT22;12773;50.162;8.548;2023-01-16T06:27:20;6.00;99.90
24638;DHT22;12773;50.162;8.548;2023-01-16T06:30:09;6.10;99.90
24638;DHT22;12773;50.162;8.548;2023-01-16T06:32:57;6.10;99.90
24638;DHT22;12773;50.162;8.548;2023-01-16T06:35:44;6.10;99.90
24638;DHT22;12773;50.162;8.548;2023-01-16T06:38:31;6.20;99.90
24638;DHT22;12773;50.162;8.548;2023-01-16T06:41:18;6.20;99.90
24638;DHT22;12773;50.162;8.548;2023-01-16T06:44:06;6.20;99.90
24638;DHT22;12773;50.162;8.548;2023-01-16T06:46:53;6.30;99.90
24638;DHT22;12773;50.162;8.548;2023-01-16T06:49:40;6.40;99.90
24638;DHT22;12773;50.162;8.548;2023-01-16T06:52:28;6.40;99.90
24638;DHT22;12773;50.162;8.548;2023-01-16T06:55:15;6.40;99.90
24638;DHT22;12773;50.162;8.548;2023-01-16T06:58:03;6.40;99.90
24638;DHT22;12773;50.162;8.548;2023-01-16T07:00:51;6.40;99.90
24638;DHT22;12773;50.162;8.548;2023-01-16T07:03:39;6.40;99.90
24638;DHT22;12773;50.162;8.548;2023-01-16T07:06:26;6.50;99.90
24638;DHT22;12773;50.162;8.548;2023-01-16T07:09:14;6.60;99.90
24638;DHT22;12773;50.162;8.548;2023-01-16T07:12:01;6.60;99.90
24638;DHT22;12773;50.162;8.548;2023-01-16T07:14:49;6.70;99.90
24638;DHT22;12773;50.162;8.548;2023-01-16T07:17:54;6.70;99.90
24638;DHT22;12773;50.162;8.548;2023-01-16T07:21:02;6.70;99.90
24638;DHT22;12773;50.162;8.548;2023-01-16T07:24:10;6.60;99.90
24638;DHT22;12773;50.162;8.548;2023-01-16T07:27:01;6.70;99.90
24638;DHT22;12773;50.162;8.548;2023-01-16T07:29:50;6.80;99.90
24638;DHT22;12773;50.162;8.548;2023-01-16T07:32:39;7.00;99.90
24638;DHT22;12773;50.162;8.548;2023-01-16T07:35:26;7.20;99.90
24638;DHT22;12773;50.162;8.548;2023-01-16T07:38:14;7.30;99.90
24638;DHT22;12773;50.162;8.548;2023-01-16T07:41:02;7.40;99.90
24638;DHT22;12773;50.162;8.548;2023-01-16T07:43:50;7.50;99.90
24638;DHT22;12773;50.162;8.548;2023-01-16T07:46:38;7.60;99.90
24638;DHT22;12773;50.162;8.548;2023-01-16T07:49:27;7.50;99.90
24638;DHT22;12773;50.162;8.548;2023-01-16T07:52:14;7.60;99.90
24638;DHT22;12773;50.162;8.548;2023-01-16T07:55:03;7.60;99.90
24638;DHT22;12773;50.162;8.548;2023-01-16T07:57:51;7.60;99.90
24638;DHT22;12773;50.162;8.548;2023-01-16T08:00:38;7.70;99.90
24638;DHT22;12773;50.162;8.548;2023-01-16T08:03:27;7.70;99.90
24638;DHT22;12773;50.162;8.548;2023-01-16T08:06:14;7.60;99.90
24638;DHT22;12773;50.162;8.548;2023-01-16T08:09:02;7.70;99.90
24638;DHT22;12773;50.162;8.548;2023-01-16T08:11:49;7.70;99.90
24638;DHT22;12773;50.162;8.548;2023-01-16T08:14:36;7.70;99.90
24638;DHT22;12773;50.162;8.548;2023-01-16T08:17:25;7.70;99.90
24638;DHT22;12773;50.162;8.548;2023-01-16T08:20:12;7.80;99.90
24638;DHT22;12773;50.162;8.548;2023-01-16T08:23:00;7.80;99.90
24638;DHT22;12773;50.162;8.548;2023-01-16T08:25:49;7.80;99.90
24638;DHT22;12773;50.162;8.548;2023-01-16T08:28:38;7.80;99.90
24638;DHT22;12773;50.162;8.548;2023-01-16T08:31:26;7.80;99.90
24638;DHT22;12773;50.162;8.548;2023-01-16T08:34:13;7.80;99.90
24638;DHT22;12773;50.162;8.548;2023-01-16T08:37:01;7.80;99.90
24638;DHT22;12773;50.162;8.548;2023-01-16T08:39:50;7.90;99.90
24638;DHT22;12773;50.162;8.548;2023-01-16T08:42:37;7.90;99.90
24638;DHT22;12773;50.162;8.548;2023-01-16T08:45:43;7.90;99.90
24638;DHT22;12773;50.162;8.548;2023-01-16T08:48:48;8.00;99.90
24638;DHT22;12773;50.162;8.548;2023-01-16T08:51:53;7.80;99.90
24638;DHT22;12773;50.162;8.548;2023-01-16T08:54:41;7.80;99.90
24638;DHT22;12773;50.162;8.548;2023-01-16T08:57:29;7.80;99.90
24638;DHT22;12773;50.162;8.548;2023-01-16T09:00:17;7.80;99.90
24638;DHT22;12773;50.162;8.548;2023-01-16T09:03:06;7.70;99.90
24638;DHT22;12773;50.162;8.548;2023-01-16T09:05:54;7.60;99.90
24638;DHT22;12773;50.162;8.548;2023-01-16T09:08:41;7.60;99.90
24638;DHT22;12773;50.162;8.548;2023-01-16T09:11:29;7.60;99.90
24638;DHT22;12773;50.162;8.548;2023-01-16T09:14:34;7.60;99.90
24638;DHT22;12773;50.162;8.548;2023-01-16T09:17:23;7.60;99.90
24638;DHT22;12773;50.162;8.548;2023-01-16T09:20:11;7.50;99.90
24638;DHT22;12773;50.162;8.548;2023-01-16T09:23:02;7.50;99.90
24638;DHT22;12773;50.162;8.548;2023-01-16T09:25:50;7.50;99.90
24638;DHT22;12773;50.162;8.548;2023-01-16T09:28:37;7.40;99.90
24638;DHT22;12773;50.162;8.548;2023-01-16T09:31:25;7.40;99.90
24638;DHT22;12773;50.162;8.548;2023-01-16T09:34:12;7.30;99.90
24638;DHT22;12773;50.162;8.548;2023-01-16T09:37:01;7.20;99.90
24638;DHT22;12773;50.162;8.548;2023-01-16T09:39:48;7.10;99.90
24638;DHT22;12773;50.162;8.548;2023-01-16T09:42:50;7.10;99.90
24638;DHT22;12773;50.162;8.548;2023-01-16T09:45:55;7.00;99.90
24638;DHT22;12773;50.162;8.548;2023-01-16T09:48:55;6.90;99.90
24638;DHT22;12773;50.162;8.548;2023-01-16T09:51:45;6.90;99.90
24638;DHT22;12773;50.162;8.548;2023-01-16T09:54:39;6.80;99.90
24638;DHT22;12773;50.162;8.548;2023-01-16T09:57:44;6.80;99.90
24638;DHT22;12773;50.162;8.548;2023-01-16T10:00:50;6.70;99.90
24638;DHT22;12773;50.162;8.548;2023-01-16T10:03:38;6.60;99.90
24638;DHT22;12773;50.162;8.548;2023-01-16T10:06:36;6.70;99.90
24638;DHT22;12773;50.162;8.548;2023-01-16T10:09:31;6.70;99.90
24638;DHT22;12773;50.162;8.548;2023-01-16T10:12:16;6.60;99.90
24638;DHT22;12773;50.162;8.548;2023-01-16T10:15:31;6.60;99.90
24638;DHT22;12773;50.162;8.548;2023-01-16T10:18:33;6.60;99.90
24638;DHT22;12773;50.162;8.548;2023-01-16T10:24:22;6.50;99.90
24638;DHT22;12773;50.162;8.548;2023-01-16T10:27:33;6.50;99.90
24638;DHT22;12773;50.162;8.548;2023-01-16T10:30:28;6.40;99.90
24638;DHT22;12773;50.162;8.548;2023-01-16T10:36:11;6.40;99.90
24638;DHT22;12773;50.162;8.548;2023-01-16T10:38:59;6.30;99.90
24638;DHT22;12773;50.162;8.548;2023-01-16T10:41:54;6.30;99.90
24638;DHT22;12773;50.162;8.548;2023-01-16T10:45:16;6.30;99.90
24638;DHT22;12773;50.162;8.548;2023-01-16T10:48:23;6.20;99.90
24638;DHT22;12773;50.162;8.548;2023-01-16T10:51:30;6.20;99.90
24638;DHT22;12773;50.162;8.548;2023-01-16T10:54:18;6.10;99.90
24638;DHT22;12773;50.162;8.548;2023-01-16T10:57:17;6.10;99.90
24638;DHT22;12773;50.162;8.548;2023-01-16T11:00:14;6.10;99.90
24638;DHT22;12773;50.162;8.548;2023-01-16T11:03:07;6.10;99.90
24638;DHT22;12773;50.162;8.548;2023-01-16T11:05:48;6.20;99.90
24638;DHT22;12773;50.162;8.548;2023-01-16T11:08:35;6.20;99.90
24638;DHT22;12773;50.162;8.548;2023-01-16T11:11:23;6.20;99.90
24638;DHT22;12773;50.162;8.548;2023-01-16T11:14:38;6.30;99.90
24638;DHT22;12773;50.162;8.548;2023-01-16T11:17:41;6.30;99.90
24638;DHT22;12773;50.162;8.548;2023-01-16T11:20:49;6.30;99.90
24638;DHT22;12773;50.162;8.548;2023-01-16T11:23:39;6.20;99.90
24638;DHT22;12773;50.162;8.548;2023-01-16T11:26:28;6.20;99.90
24638;DHT22;12773;50.162;8.548;2023-01-16T11:29:18;6.20;99.90
24638;DHT22;12773;50.162;8.548;2023-01-16T11:32:08;6.20;99.90
24638;DHT22;12773;50.162;8.548;2023-01-16T11:34:58;6.30;99.90
24638;DHT22;12773;50.162;8.548;2023-01-16T11:37:48;6.20;99.90
24638;DHT22;12773;50.162;8.548;2023-01-16T11:40:42;6.30;99.90
24638;DHT22;12773;50.162;8.548;2023-01-16T11:43:28;6.30;99.90
24638;DHT22;12773;50.162;8.548;2023-01-16T11:46:38;6.30;99.90
24638;DHT22;12773;50.162;8.548;2023-01-16T11:49:38;6.30;99.90
24638;DHT22;12773;50.162;8.548;2023-01-16T11:52:28;6.20;99.90
24638;DHT22;12773;50.162;8.548;2023-01-16T11:55:19;6.40;99.90
24638;DHT22;12773;50.162;8.548;2023-01-16T11:58:11;6.50;99.90
24638;DHT22;12773;50.162;8.548;2023-01-16T12:04:06;6.80;99.90
24638;DHT22;12773;50.162;8.548;2023-01-16T12:07:06;6.90;99.90
24638;DHT22;12773;50.162;8.548;2023-01-16T12:10:08;6.80;99.90
24638;DHT22;12773;50.162;8.548;2023-01-16T12:12:54;6.80;99.90
24638;DHT22;12773;50.162;8.548;2023-01-16T12:19:21;6.80;99.90
24638;DHT22;12773;50.162;8.548;2023-01-16T12:28:29;7.00;99.90
24638;DHT22;12773;50.162;8.548;2023-01-16T12:34:44;7.30;99.90
24638;DHT22;12773;50.162;8.548;2023-01-16T12:37:39;7.40;99.90
24638;DHT22;12773;50.162;8.548;2023-01-16T12:40:34;7.50;99.90
24638;DHT22;12773;50.162;8.548;2023-01-16T12:43:27;7.70;99.90
24638;DHT22;12773;50.162;8.548;2023-01-16T12:46:16;7.80;99.90
24638;DHT22;12773;50.162;8.548;2023-01-16T12:49:23;7.90;99.90
24638;DHT22;12773;50.162;8.548;2023-01-16T12:55:16;8.10;99.90
24638;DHT22;12773;50.162;8.548;2023-01-16T12:58:19;8.10;99.90
24638;DHT22;12773;50.162;8.548;2023-01-16T13:01:10;8.20;99.90
24638;DHT22;12773;50.162;8.548;2023-01-16T13:04:07;8.40;99.90
24638;DHT22;12773;50.162;8.548;2023-01-16T13:06:55;8.30;99.90
24638;DHT22;12773;50.162;8.548;2023-01-16T13:09:49;8.40;99.90
24638;DHT22;12773;50.162;8.548;2023-01-16T13:12:37;8.50;99.90
24638;DHT22;12773;50.162;8.548;2023-01-16T13:15:45;8.50;99.90
24638;DHT22;12773;50.162;8.548;2023-01-16T13:22:06;8.40;99.90
24638;DHT22;12773;50.162;8.548;2023-01-16T13:25:21;8.40;99.90
24638;DHT22;12773;50.162;8.548;2023-01-16T13:28:17;8.40;99.90
24638;DHT22;12773;50.162;8.548;2023-01-16T13:31:07;8.40;99.90
24638;DHT22;12773;50.162;8.548;2023-01-16T13:34:03;8.10;99.90
24638;DHT22;12773;50.162;8.548;2023-01-16T13:42:58;8.10;99.90
24638;DHT22;12773;50.162;8.548;2023-01-16T13:45:51;8.00;99.90
24638;DHT22;12773;50.162;8.548;2023-01-16T13:48:39;7.90;99.90
24638;DHT22;12773;50.162;8.548;2023-01-16T13:51:27;7.80;99.90
24638;DHT22;12773;50.162;8.548;2023-01-16T13:54:22;7.90;99.90
24638;DHT22;12773;50.162;8.548;2023-01-16T13:57:14;8.10;99.90
24638;DHT22;12773;50.162;8.548;2023-01-16T14:00:15;8.10;99.90
24638;DHT22;12773;50.162;8.548;2023-01-16T14:03:01;8.00;99.90
24638;DHT22;12773;50.162;8.548;2023-01-16T14:06:17;8.10;99.90
24638;DHT22;12773;50.162;8.548;2023-01-16T14:12:20;7.90;99.90
24638;DHT22;12773;50.162;8.548;2023-01-16T14:15:18;7.70;99.90
24638;DHT22;12773;50.162;8.548;2023-01-16T14:18:34;7.50;99.90
24638;DHT22;12773;50.162;8.548;2023-01-16T14:21:24;7.40;99.90
24638;DHT22;12773;50.162;8.548;2023-01-16T14:24:17;7.30;99.90
24638;DHT22;12773;50.162;8.548;2023-01-16T14:27:01;7.40;99.90
24638;DHT22;12773;50.162;8.548;2023-01-16T14:29:57;7.50;99.90
24638;DHT22;12773;50.162;8.548;2023-01-16T14:32:52;7.40;99.90
24638;DHT22;12773;50.162;8.548;2023-01-16T14:35:48;7.40;99.90
24638;DHT22;12773;50.162;8.548;2023-01-16T14:38:36;7.40;99.90
24638;DHT22;12773;50.162;8.548;2023-01-16T14:41:26;7.60;99.90
24638;DHT22;12773;50.162;8.548;2023-01-16T14:44:31;7.60;99.90
24638;DHT22;12773;50.162;8.548;2023-01-16T14:47:29;7.60;99.90
24638;DHT22;12773;50.162;8.548;2023-01-16T14:50:51;7.70;99.90
24638;DHT22;12773;50.162;8.548;2023-01-16T14:54:16;7.80;99.90
24638;DHT22;12773;50.162;8.548;2023-01-16T14:57:26;7.90;99.90
24638;DHT22;12773;50.162;8.548;2023-01-16T15:00:16;7.90;99.90
24638;DHT22;12773;50.162;8.548;2023-01-16T15:03:14;7.90;99.90
24638;DHT22;12773;50.162;8.548;2023-01-16T15:06:02;8.00;99.90
24638;DHT22;12773;50.162;8.548;2023-01-16T15:08:52;8.00;99.90
24638;DHT22;12773;50.162;8.548;2023-01-16T15:11:57;8.00;99.90
24638;DHT22;12773;50.162;8.548;2023-01-16T15:14:57;8.10;99.90
24638;DHT22;12773;50.162;8.548;2023-01-16T15:17:45;8.20;99.90
24638;DHT22;12773;50.162;8.548;2023-01-16T15:20:51;8.10;99.90
24638;DHT22;12773;50.162;8.548;2023-01-16T15:23:57;8.10;99.90
24638;DHT22;12773;50.162;8.548;2023-01-16T15:29:54;7.90;99.90
24638;DHT22;12773;50.162;8.548;2023-01-16T15:32:58;7.80;99.90
24638;DHT22;12773;50.162;8.548;2023-01-16T15:35:56;7.80;99.90
24638;DHT22;12773;50.162;8.548;2023-01-16T15:39:52;7.60;99.90
24638;DHT22;12773;50.162;8.548;2023-01-16T15:42:01;7.30;99.90
24638;DHT22;12773;50.162;8.548;2023-01-16T15:45:21;7.20;99.90
24638;DHT22;12773;50.162;8.548;2023-01-16T15:48:43;6.70;99.90
24638;DHT22;12773;50.162;8.548;2023-01-16T15:51:29;6.60;99.90
24638;DHT22;12773;50.162;8.548;2023-01-16T15:54:17;6.30;99.90
24638;DHT22;12773;50.162;8.548;2023-01-16T15:57:05;6.40;99.90
24638;DHT22;12773;50.162;8.548;2023-01-16T15:59:56;6.50;99.90
24638;DHT22;12773;50.162;8.548;2023-01-16T16:02:44;6.50;99.90
24638;DHT22;12773;50.162;8.548;2023-01-16T16:05:32;6.40;99.90
24638;DHT22;12773;50.162;8.548;2023-01-16T16:08:28;6.40;99.90
24638;DHT22;12773;50.162;8.548;2023-01-16T16:11:21;6.30;99.90
24638;DHT22;12773;50.162;8.548;2023-01-16T16:14:37;6.30;99.90
24638;DHT22;12773;50.162;8.548;2023-01-16T16:17:44;6.40;99.90
24638;DHT22;12773;50.162;8.548;2023-01-16T16:20:45;6.40;99.90
24638;DHT22;12773;50.162;8.548;2023-01-16T16:23:34;6.30;99.90
24638;DHT22;12773;50.162;8.548;2023-01-16T16:26:21;6.40;99.90
24638;DHT22;12773;50.162;8.548;2023-01-16T16:29:22;6.40;99.90
24638;DHT22;12773;50.162;8.548;2023-01-16T16:32:10;6.40;99.90
24638;DHT22;12773;50.162;8.548;2023-01-16T16:34:56;6.40;99.90
24638;DHT22;12773;50.162;8.548;2023-01-16T16:37:44;6.40;99.90
24638;DHT22;12773;50.162;8.548;2023-01-16T16:40:32;6.50;99.90
24638;DHT22;12773;50.162;8.548;2023-01-16T16:43:41;6.50;99.90
24638;DHT22;12773;50.162;8.548;2023-01-16T16:52:25;6.30;99.90
24638;DHT22;12773;50.162;8.548;2023-01-16T16:55:26;6.30;99.90
24638;DHT22;12773;50.162;8.548;2023-01-16T16:58:22;6.20;99.90
24638;DHT22;12773;50.162;8.548;2023-01-16T17:01:15;6.30;99.90
24638;DHT22;12773;50.162;8.548;2023-01-16T17:04:05;6.30;99.90
24638;DHT22;12773;50.162;8.548;2023-01-16T17:06:53;6.20;99.90
24638;DHT22;12773;50.162;8.548;2023-01-16T17:09:40;6.20;99.90
24638;DHT22;12773;50.162;8.548;2023-01-16T17:12:28;6.20;99.90
24638;DHT22;12773;50.162;8.548;2023-01-16T17:15:16;6.20;99.90
24638;DHT22;12773;50.162;8.548;2023-01-16T17:18:03;6.20;99.90
24638;DHT22;12773;50.162;8.548;2023-01-16T17:20:51;6.10;99.90
24638;DHT22;12773;50.162;8.548;2023-01-16T17:23:40;6.10;99.90
24638;DHT22;12773;50.162;8.548;2023-01-16T17:26:27;6.10;99.90
24638;DHT22;12773;50.162;8.548;2023-01-16T17:29:15;6.10;99.90
24638;DHT22;12773;50.162;8.548;2023-01-16T17:32:04;6.00;99.90
24638;DHT22;12773;50.162;8.548;2023-01-16T17:34:53;6.00;99.90
24638;DHT22;12773;50.162;8.548;2023-01-16T17:37:42;6.00;99.90
24638;DHT22;12773;50.162;8.548;2023-01-16T17:40:29;5.90;99.90
24638;DHT22;12773;50.162;8.548;2023-01-16T17:43:19;6.00;99.90
24638;DHT22;12773;50.162;8.548;2023-01-16T17:46:25;6.00;99.90
24638;DHT22;12773;50.162;8.548;2023-01-16T17:49:13;6.00;99.90
24638;DHT22;12773;50.162;8.548;2023-01-16T17:52:01;6.00;99.90
24638;DHT22;12773;50.162;8.548;2023-01-16T17:54:49;6.00;99.90
24638;DHT22;12773;50.162;8.548;2023-01-16T17:57:55;6.00;99.90
24638;DHT22;12773;50.162;8.548;2023-01-16T18:00:44;6.00;99.90
24638;DHT22;12773;50.162;8.548;2023-01-16T18:03:32;5.90;99.90
24638;DHT22;12773;50.162;8.548;2023-01-16T18:06:22;6.00;99.90
24638;DHT22;12773;50.162;8.548;2023-01-16T18:09:11;6.10;99.90
24638;DHT22;12773;50.162;8.548;2023-01-16T18:12:00;6.10;99.90
24638;DHT22;12773;50.162;8.548;2023-01-16T18:15:06;6.20;99.90
24638;DHT22;12773;50.162;8.548;2023-01-16T18:18:12;6.10;99.90
24638;DHT22;12773;50.162;8.548;2023-01-16T18:21:00;6.10;99.90
24638;DHT22;12773;50.162;8.548;2023-01-16T18:24:06;6.20;99.90
24638;DHT22;12773;50.162;8.548;2023-01-16T18:26:54;6.10;99.90
24638;DHT22;12773;50.162;8.548;2023-01-16T18:29:43;6.10;99.90
24638;DHT22;12773;50.162;8.548;2023-01-16T18:32:31;6.00;99.90
24638;DHT22;12773;50.162;8.548;2023-01-16T18:35:19;5.90;99.90
24638;DHT22;12773;50.162;8.548;2023-01-16T18:38:08;5.90;99.90
24638;DHT22;12773;50.162;8.548;2023-01-16T18:41:13;5.80;99.90
24638;DHT22;12773;50.162;8.548;2023-01-16T18:44:19;5.90;99.90
24638;DHT22;12773;50.162;8.548;2023-01-16T18:47:24;5.80;99.90
24638;DHT22;12773;50.162;8.548;2023-01-16T18:50:30;5.80;99.90
24638;DHT22;12773;50.162;8.548;2023-01-16T18:53:38;5.80;99.90
24638;DHT22;12773;50.162;8.548;2023-01-16T18:56:49;5.80;99.90
24638;DHT22;12773;50.162;8.548;2023-01-16T18:59:53;5.80;99.90
24638;DHT22;12773;50.162;8.548;2023-01-16T19:02:59;5.80;99.90
24638;DHT22;12773;50.162;8.548;2023-01-16T19:05:47;5.80;99.90
24638;DHT22;12773;50.162;8.548;2023-01-16T19:08:34;5.90;99.90
24638;DHT22;12773;50.162;8.548;2023-01-16T19:11:21;5.80;99.90
24638;DHT22;12773;50.162;8.548;2023-01-16T19:14:10;5.80;99.90
24638;DHT22;12773;50.162;8.548;2023-01-16T19:16:58;5.80;99.90
24638;DHT22;12773;50.162;8.548;2023-01-16T19:19:47;5.80;99.90
24638;DHT22;12773;50.162;8.548;2023-01-16T19:22:36;5.70;99.90
24638;DHT22;12773;50.162;8.548;2023-01-16T19:25:26;5.70;99.90
24638;DHT22;12773;50.162;8.548;2023-01-16T19:28:13;5.70;99.90
24638;DHT22;12773;50.162;8.548;2023-01-16T19:31:01;5.60;99.90
24638;DHT22;12773;50.162;8.548;2023-01-16T19:33:54;5.60;99.90
24638;DHT22;12773;50.162;8.548;2023-01-16T19:36:42;5.60;99.90
24638;DHT22;12773;50.162;8.548;2023-01-16T19:39:31;5.70;99.90
24638;DHT22;12773;50.162;8.548;2023-01-16T19:42:20;5.70;99.90